Time;durP1;ratioP1;P1;durP2;ratioP2;P2;SDS_P1;SDS_P2;PMS_P1;PMS_P2;Temp;Humidity;BMP_temperature;BMP_pressure;BME280_temperature;BME280_humidity;BME280_pressure;Samples;Min_cycle;Max_cycle;Signal;HPM_P1;HPM_P2
2022/12/06 00:00:42;;;;;;;11.52;10.13;;;;;;;;;;5018712;28;20476;-75
2022/12/06 00:03:13;;;;;;;12.93;9.90;;;;;;;;;;5023203;28;20034;-75
2022/12/06 00:05:38;;;;;;;12.25;10.65;;;;;;;;;;5019477;28;20523;-75
2022/12/06 00:08:04;;;;;;;13.48;11.70;;;;;;;;;;5005675;28;20065;-74
2022/12/06 00:10:32;;;;;;;13.65;10.10;;;;;;;;;;5006934;28;20026;-74
2022/12/06 00:13:01;;;;;;;15.80;10.35;;;;;;;;;;5021533;28;20045;-75
2022/12/06 00:15:29;;;;;;;12.30;10.18;;;;;;;;;;5020204;28;20033;-75
2022/12/06 00:17:57;;;;;;;14.80;10.50;;;;;;;;;;5022101;28;20025;-75
2022/12/06 00:20:23;;;;;;;11.05;9.38;;;;;;;;;;5021504;28;20113;-75
2022/12/06 00:22:49;;;;;;;11.80;10.60;;;;;;;;;;5023761;28;20030;-74
2022/12/06 00:25:15;;;;;;;15.02;11.65;;;;;;;;;;5022776;28;20037;-74
2022/12/06 00:27:43;;;;;;;14.88;12.27;;;;;;;;;;5011421;28;20495;-74
2022/12/06 00:30:09;;;;;;;19.88;13.63;;;;;;;;;;5024130;28;20049;-75
2022/12/06 00:32:35;;;;;;;20.40;15.05;;;;;;;;;;5019968;28;20033;-75
2022/12/06 00:35:01;;;;;;;25.30;15.57;;;;;;;;;;5020764;28;20395;-77
2022/12/06 00:37:30;;;;;;;16.02;12.73;;;;;;;;;;5021501;28;20029;-76
2022/12/06 00:40:00;;;;;;;25.90;16.40;;;;;;;;;;5020177;28;20483;-76
2022/12/06 00:42:25;;;;;;;19.23;13.77;;;;;;;;;;5028794;28;20131;-76
2022/12/06 00:44:53;;;;;;;17.77;15.30;;;;;;;;;;5018652;28;20635;-76
2022/12/06 00:47:22;;;;;;;19.58;16.67;;;;;;;;;;5018084;28;20049;-76
2022/12/06 00:49:50;;;;;;;20.73;14.63;;;;;;;;;;5019658;28;20395;-74
2022/12/06 00:52:16;;;;;;;19.05;13.70;;;;;;;;;;5025430;28;20026;-73
2022/12/06 00:54:42;;;;;;;20.50;15.25;;;;;;;;;;5021945;28;20046;-73
2022/12/06 00:57:08;;;;;;;15.20;13.57;;;;;;;;;;5020483;28;20036;-74
2022/12/06 00:59:33;;;;;;;20.58;16.25;;;;;;;;;;5022077;28;20045;-73
2022/12/06 01:02:02;;;;;;;21.60;15.52;;;;;;;;;;5033892;22;20053;-72
2022/12/06 01:04:30;;;;;;;19.35;12.13;;;;;;;;;;5005832;28;20438;-72
2022/12/06 01:06:56;;;;;;;20.08;14.98;;;;;;;;;;5021073;28;20029;-72
2022/12/06 01:09:22;;;;;;;15.77;12.88;;;;;;;;;;4990036;28;20033;-72
2022/12/06 01:11:50;;;;;;;17.10;12.65;;;;;;;;;;5021492;28;20033;-72
2022/12/06 01:14:16;;;;;;;17.75;13.15;;;;;;;;;;5020411;28;20083;-72
2022/12/06 01:16:42;;;;;;;15.27;13.10;;;;;;;;;;5020396;28;20707;-71
2022/12/06 01:19:08;;;;;;;16.35;11.88;;;;;;;;;;5002603;28;20037;-72
2022/12/06 01:21:36;;;;;;;15.15;12.93;;;;;;;;;;5020081;28;20479;-71
2022/12/06 01:24:04;;;;;;;18.15;12.73;;;;;;;;;;5022140;28;20032;-71
2022/12/06 01:26:30;;;;;;;18.98;12.38;;;;;;;;;;5018450;28;20037;-71
2022/12/06 01:29:02;;;;;;;18.13;12.10;;;;;;;;;;5020061;28;20464;-72
2022/12/06 01:31:28;;;;;;;17.67;15.50;;;;;;;;;;5018233;28;20037;-71
2022/12/06 01:33:54;;;;;;;18.35;14.80;;;;;;;;;;5019839;28;20033;-71
2022/12/06 01:36:22;;;;;;;14.80;13.23;;;;;;;;;;5004442;28;20079;-72
2022/12/06 01:38:51;;;;;;;18.95;13.35;;;;;;;;;;5021359;28;20260;-71
2022/12/06 01:41:20;;;;;;;16.13;13.40;;;;;;;;;;5021626;28;20044;-72
2022/12/06 01:43:49;;;;;;;14.77;11.95;;;;;;;;;;5021826;28;20025;-72
2022/12/06 01:46:21;;;;;;;22.45;14.48;;;;;;;;;;5020959;28;20041;-72
2022/12/06 01:48:51;;;;;;;15.30;12.20;;;;;;;;;;5023402;28;20033;-72
2022/12/06 01:51:20;;;;;;;;;;;;;;;;;;5024592;28;20025;-71
2022/12/06 01:53:46;;;;;;;15.60;12.55;;;;;;;;;;5009619;28;20297;-71
2022/12/06 01:56:18;;;;;;;16.13;14.35;;;;;;;;;;5024867;28;20041;-71
2022/12/06 01:58:49;;;;;;;19.95;14.60;;;;;;;;;;5018972;28;20029;-71
2022/12/06 02:01:15;;;;;;;20.58;14.25;;;;;;;;;;5020365;28;20033;-71
2022/12/06 02:03:44;;;;;;;15.23;12.43;;;;;;;;;;5024729;28;20046;-71
2022/12/06 02:06:11;;;;;;;19.40;14.45;;;;;;;;;;5020819;28;20162;-71
2022/12/06 02:08:37;;;;;;;16.27;13.27;;;;;;;;;;5021066;28;20399;-72
2022/12/06 02:11:05;;;;;;;15.75;14.05;;;;;;;;;;5021399;28;20034;-71
2022/12/06 02:13:32;;;;;;;18.15;13.52;;;;;;;;;;5005853;28;20033;-71
2022/12/06 02:16:15;;;;;;;17.15;12.75;;;;;;;;;;4999615;28;20041;-71
2022/12/06 02:18:59;;;;;;;14.65;13.13;;;;;;;;;;5020610;28;20052;-71
2022/12/06 02:21:25;;;;;;;17.92;13.23;;;;;;;;;;5021310;28;20030;-71
2022/12/06 02:24:09;;;;;;;16.42;13.35;;;;;;;;;;5004805;28;20049;-71
2022/12/06 02:26:42;;;;;;;19.85;14.63;;;;;;;;;;5019700;28;20037;-71
2022/12/06 02:29:26;;;;;;;17.83;14.10;;;;;;;;;;5021326;28;20332;-72
2022/12/06 02:32:12;;;;;;;21.20;15.10;;;;;;;;;;5020285;28;20033;-71
2022/12/06 02:34:48;;;;;;;19.20;16.60;;;;;;;;;;4985075;28;20041;-71
2022/12/06 02:37:23;;;;;;;17.17;13.10;;;;;;;;;;5020014;28;20026;-71
2022/12/06 02:39:56;;;;;;;18.45;14.93;;;;;;;;;;5019994;28;20030;-71
2022/12/06 02:42:23;;;;;;;15.13;12.07;;;;;;;;;;5018585;28;20025;-72
2022/12/06 02:44:57;;;;;;;14.80;12.95;;;;;;;;;;5018382;28;20040;-71
2022/12/06 02:47:25;;;;;;;19.35;15.07;;;;;;;;;;5019468;28;20040;-71
2022/12/06 02:49:55;;;;;;;20.40;14.93;;;;;;;;;;5018606;28;20029;-71
2022/12/06 02:52:28;;;;;;;24.40;15.18;;;;;;;;;;5020233;28;20716;-71
2022/12/06 02:54:55;;;;;;;18.50;15.25;;;;;;;;;;5018358;28;20022;-72
2022/12/06 02:57:44;;;;;;;18.35;14.02;;;;;;;;;;5017431;28;20026;-71
2022/12/06 03:00:29;;;;;;;20.45;13.48;;;;;;;;;;5017315;28;20037;-71
2022/12/06 03:03:06;;;;;;;18.55;13.85;;;;;;;;;;5020971;28;20025;-71
2022/12/06 03:05:38;;;;;;;15.18;13.57;;;;;;;;;;5024874;28;20021;-71
2022/12/06 03:08:09;;;;;;;17.02;13.52;;;;;;;;;;5021926;28;20041;-72
2022/12/06 03:10:45;;;;;;;20.38;12.07;;;;;;;;;;5024877;28;20022;-72
2022/12/06 03:13:14;;;;;;;18.30;12.63;;;;;;;;;;5023988;28;20021;-71
2022/12/06 03:15:40;;;;;;;14.95;12.38;;;;;;;;;;5025752;28;20025;-71
2022/12/06 03:18:13;;;;;;;14.90;11.38;;;;;;;;;;5029525;28;20049;-71
2022/12/06 03:21:09;;;;;;;13.68;11.35;;;;;;;;;;5025111;28;20036;-71
2022/12/06 03:23:39;;;;;;;12.10;9.32;;;;;;;;;;5008499;28;20041;-72
2022/12/06 03:26:07;;;;;;;15.35;10.77;;;;;;;;;;5025476;28;20028;-71
2022/12/06 03:28:35;;;;;;;10.18;8.77;;;;;;;;;;5029186;28;20038;-71
2022/12/06 03:31:03;;;;;;;10.80;8.20;;;;;;;;;;5042042;28;20029;-71
2022/12/06 03:33:33;;;;;;;12.38;10.25;;;;;;;;;;5030156;28;20037;-71
2022/12/06 03:36:01;;;;;;;12.32;8.85;;;;;;;;;;5020828;28;20026;-71
2022/12/06 03:38:31;;;;;;;10.32;9.20;;;;;;;;;;5031168;28;20029;-71
2022/12/06 03:41:04;;;;;;;9.10;7.85;;;;;;;;;;5027979;28;20036;-71
2022/12/06 03:43:32;;;;;;;11.43;8.95;;;;;;;;;;5025455;28;20506;-71
2022/12/06 03:46:13;;;;;;;7.90;6.18;;;;;;;;;;5025413;28;20036;-72
2022/12/06 03:48:47;;;;;;;8.35;7.30;;;;;;;;;;5027490;28;20040;-72
2022/12/06 03:51:16;;;;;;;10.15;7.88;;;;;;;;;;5027830;28;20029;-72
2022/12/06 03:53:50;;;;;;;10.35;8.50;;;;;;;;;;5011969;28;20033;-72
2022/12/06 03:56:16;;;;;;;13.90;8.35;;;;;;;;;;5028697;28;20029;-72
2022/12/06 03:58:42;;;;;;;8.88;7.22;;;;;;;;;;5021798;28;20452;-72
2022/12/06 04:01:07;;;;;;;8.43;7.57;;;;;;;;;;5028660;28;20038;-73
2022/12/06 04:03:36;;;;;;;9.77;7.80;;;;;;;;;;5028060;28;20545;-71
2022/12/06 04:06:04;;;;;;;9.75;6.53;;;;;;;;;;5023288;28;20468;-71
2022/12/06 04:08:33;;;;;;;7.90;7.10;;;;;;;;;;5028987;28;20033;-72
2022/12/06 04:11:01;;;;;;;11.23;7.53;;;;;;;;;;5022640;28;20029;-72
2022/12/06 04:13:27;;;;;;;6.22;5.63;;;;;;;;;;5025618;28;21510;-72
2022/12/06 04:15:56;;;;;;;8.40;7.60;;;;;;;;;;5005030;28;20037;-71
2022/12/06 04:18:24;;;;;;;7.35;6.55;;;;;;;;;;5023674;28;20033;-71
2022/12/06 04:23:39;;;;;;;7.75;6.97;;;;;;;;;;4995052;28;20041;-71
2022/12/06 04:26:09;;;;;;;8.43;7.57;;;;;;;;;;5021728;28;20040;-72
2022/12/06 04:39:43;;;;;;;6.35;5.57;;;;;;;;;;5019186;28;20033;-71
2022/12/06 04:44:56;;;;;;;8.52;4.95;;;;;;;;;;5021160;28;20049;-71
2022/12/06 04:47:25;;;;;;;7.70;6.70;;;;;;;;;;5020936;28;20037;-71
2022/12/06 04:49:51;;;;;;;5.45;4.63;;;;;;;;;;5020568;28;20025;-71
2022/12/06 04:52:17;;;;;;;6.38;5.75;;;;;;;;;;5023986;28;20029;-71
2022/12/06 04:54:46;;;;;;;7.75;5.72;;;;;;;;;;5020404;28;20534;-71
2022/12/06 04:57:12;;;;;;;6.80;5.53;;;;;;;;;;5026464;28;20040;-71
2022/12/06 04:59:39;;;;;;;8.25;5.53;;;;;;;;;;5022243;28;20038;-71
2022/12/06 05:02:11;;;;;;;10.77;5.43;;;;;;;;;;5027959;28;20399;-71
2022/12/06 05:04:37;;;;;;;7.20;5.38;;;;;;;;;;5020441;28;20033;-72
2022/12/06 05:07:03;;;;;;;10.18;7.70;;;;;;;;;;5022617;28;20038;-71
2022/12/06 05:09:31;;;;;;;18.52;6.35;;;;;;;;;;5020640;28;20029;-71
2022/12/06 05:11:56;;;;;;;7.53;6.35;;;;;;;;;;5020434;28;20041;-71
2022/12/06 05:14:25;;;;;;;7.95;6.00;;;;;;;;;;5021607;28;20030;-71
2022/12/06 05:16:50;;;;;;;8.57;6.32;;;;;;;;;;5023434;28;20036;-71
2022/12/06 05:19:16;;;;;;;8.88;6.22;;;;;;;;;;5019476;28;20737;-71
2022/12/06 05:21:45;;;;;;;8.07;5.90;;;;;;;;;;5023499;28;20475;-71
2022/12/06 05:24:14;;;;;;;8.65;6.07;;;;;;;;;;5025149;28;20041;-71
2022/12/06 05:26:42;;;;;;;6.20;5.50;;;;;;;;;;5019782;28;20021;-72
2022/12/06 05:29:12;;;;;;;6.75;6.10;;;;;;;;;;5016820;28;20464;-71
2022/12/06 05:31:41;;;;;;;9.10;5.68;;;;;;;;;;5020374;28;20483;-71
2022/12/06 05:34:08;;;;;;;9.05;6.10;;;;;;;;;;5022322;28;20040;-71
2022/12/06 05:36:38;;;;;;;8.35;6.40;;;;;;;;;;5004613;28;20483;-71
2022/12/06 05:39:04;;;;;;;9.40;6.00;;;;;;;;;;5019574;28;20041;-71
2022/12/06 05:41:33;;;;;;;7.30;6.60;;;;;;;;;;5020634;28;20053;-72
2022/12/06 05:44:01;;;;;;;6.57;5.10;;;;;;;;;;5017652;28;20048;-72
2022/12/06 05:46:27;;;;;;;8.60;6.13;;;;;;;;;;5022656;28;20029;-72
2022/12/06 05:48:55;;;;;;;10.20;7.32;;;;;;;;;;5021553;28;20040;-71
2022/12/06 05:51:21;;;;;;;8.18;6.95;;;;;;;;;;5020420;28;20044;-72
2022/12/06 05:53:51;;;;;;;8.45;5.68;;;;;;;;;;5023477;28;20036;-72
2022/12/06 05:56:17;;;;;;;5.95;5.30;;;;;;;;;;5016307;28;20030;-71
2022/12/06 05:58:43;;;;;;;6.53;5.85;;;;;;;;;;5020024;28;20487;-71
2022/12/06 06:01:09;;;;;;;7.93;5.55;;;;;;;;;;5019371;28;20115;-72
2022/12/06 06:03:35;;;;;;;8.60;6.30;;;;;;;;;;5025896;28;20033;-76
2022/12/06 06:06:02;;;;;;;8.23;6.80;;;;;;;;;;5006204;28;20033;-71
2022/12/06 06:08:31;;;;;;;9.25;6.05;;;;;;;;;;5018206;28;20038;-77
2022/12/06 06:10:58;;;;;;;6.68;6.05;;;;;;;;;;5023525;28;20029;-73
2022/12/06 06:13:24;;;;;;;8.93;6.47;;;;;;;;;;5020940;28;20045;-72
2022/12/06 06:15:50;;;;;;;6.32;5.70;;;;;;;;;;5022844;28;20471;-71
2022/12/06 06:18:17;;;;;;;12.05;7.78;;;;;;;;;;5029755;28;20075;-73
2022/12/06 06:20:48;;;;;;;8.75;7.93;;;;;;;;;;5029637;28;20034;-72
2022/12/06 06:23:13;;;;;;;7.95;5.93;;;;;;;;;;5029956;28;20038;-72
2022/12/06 06:25:39;;;;;;;7.80;6.82;;;;;;;;;;5031142;28;20040;-72
2022/12/06 06:28:07;;;;;;;8.45;6.85;;;;;;;;;;5030103;28;20381;-72
2022/12/06 06:30:33;;;;;;;6.50;5.28;;;;;;;;;;5029674;28;20037;-72
2022/12/06 06:33:02;;;;;;;7.30;6.55;;;;;;;;;;5031355;28;20025;-72
2022/12/06 06:35:30;;;;;;;5.60;4.95;;;;;;;;;;5009102;28;20037;-73
2022/12/06 06:37:56;;;;;;;8.07;5.07;;;;;;;;;;5011483;28;20060;-72
2022/12/06 06:40:22;;;;;;;15.18;7.13;;;;;;;;;;5010931;28;20033;-72
2022/12/06 06:42:47;;;;;;;8.23;6.18;;;;;;;;;;5016058;28;20105;-72
2022/12/06 06:45:13;;;;;;;6.78;5.18;;;;;;;;;;5019498;28;20064;-72
2022/12/06 06:47:44;;;;;;;4.60;4.18;;;;;;;;;;5012904;28;20482;-72
2022/12/06 06:50:10;;;;;;;6.90;4.85;;;;;;;;;;5012028;28;20030;-71
2022/12/06 06:52:38;;;;;;;8.80;5.60;;;;;;;;;;5034216;28;20113;-72
2022/12/06 06:55:04;;;;;;;9.35;4.60;;;;;;;;;;5027662;28;20036;-71
2022/12/06 06:57:34;;;;;;;5.95;5.35;;;;;;;;;;5029771;28;20034;-72
2022/12/06 07:00:01;;;;;;;11.02;8.05;;;;;;;;;;5031494;28;20033;-72
2022/12/06 07:02:26;;;;;;;14.77;13.07;;;;;;;;;;5046124;22;20618;-76
2022/12/06 07:04:52;;;;;;;27.83;18.63;;;;;;;;;;5044171;28;20029;-77
2022/12/06 07:07:45;;;;;;;23.90;15.38;;;;;;;;;;5040134;28;20406;-76
2022/12/06 07:10:13;;;;;;;14.80;10.23;;;;;;;;;;5045999;28;20029;-77
2022/12/06 07:12:39;;;;;;;12.57;7.85;;;;;;;;;;5038324;28;20383;-76
2022/12/06 07:15:05;;;;;;;23.38;7.75;;;;;;;;;;5033754;28;20543;-77
2022/12/06 07:17:31;;;;;;;8.32;6.85;;;;;;;;;;5031684;28;20030;-74
2022/12/06 07:20:02;;;;;;;7.32;5.57;;;;;;;;;;5046271;28;20038;-74
2022/12/06 07:22:30;;;;;;;16.75;4.95;;;;;;;;;;5013178;28;20038;-74
2022/12/06 07:24:56;;;;;;;6.95;6.18;;;;;;;;;;5043493;28;20395;-74
2022/12/06 07:27:22;;;;;;;6.63;5.28;;;;;;;;;;5033760;28;20037;-74
2022/12/06 07:29:48;;;;;;;6.95;5.05;;;;;;;;;;5036974;28;20091;-74
2022/12/06 07:32:16;;;;;;;7.35;4.88;;;;;;;;;;5040479;28;20041;-74
2022/12/06 07:34:46;;;;;;;6.28;4.05;;;;;;;;;;5037324;28;20028;-75
2022/12/06 07:37:13;;;;;;;7.45;5.10;;;;;;;;;;5050448;28;20036;-74
2022/12/06 07:39:42;;;;;;;7.10;4.50;;;;;;;;;;5034347;28;20052;-74
2022/12/06 07:45:02;;;;;;;7.00;6.07;;;;;;;;;;5050920;28;20029;-74
2022/12/06 07:47:34;;;;;;;6.47;5.75;;;;;;;;;;5053543;28;20040;-74
2022/12/06 07:50:06;;;;;;;5.20;4.30;;;;;;;;;;5036545;28;20037;-75
2022/12/06 07:52:35;;;;;;;5.32;4.78;;;;;;;;;;5044922;28;20033;-75
2022/12/06 07:55:04;;;;;;;7.07;5.32;;;;;;;;;;5033097;28;20040;-75
2022/12/06 07:57:30;;;;;;;7.03;5.95;;;;;;;;;;5035723;28;20475;-75
2022/12/06 07:59:55;;;;;;;8.07;5.65;;;;;;;;;;5033067;28;20037;-75
2022/12/06 08:02:24;;;;;;;9.35;5.25;;;;;;;;;;5041488;28;20033;-75
2022/12/06 08:04:53;;;;;;;6.82;5.75;;;;;;;;;;5046150;28;20060;-76
2022/12/06 08:07:19;;;;;;;6.53;4.53;;;;;;;;;;5040333;28;20521;-76
2022/12/06 08:09:45;;;;;;;9.07;4.82;;;;;;;;;;5035880;28;20034;-75
2022/12/06 08:12:11;;;;;;;4.53;3.95;;;;;;;;;;5039279;28;20036;-75
2022/12/06 08:14:37;;;;;;;6.72;4.95;;;;;;;;;;5020064;28;20037;-75
2022/12/06 08:17:03;;;;;;;6.72;4.70;;;;;;;;;;5033302;28;20531;-75
2022/12/06 08:19:29;;;;;;;5.80;5.28;;;;;;;;;;5043157;28;20033;-75
2022/12/06 08:21:55;;;;;;;6.18;5.57;;;;;;;;;;5037655;28;20037;-75
2022/12/06 08:24:21;;;;;;;8.35;5.30;;;;;;;;;;5015254;28;20041;-75
2022/12/06 08:26:52;;;;;;;6.63;5.40;;;;;;;;;;5032618;28;20037;-76
2022/12/06 08:29:20;;;;;;;7.10;4.88;;;;;;;;;;5038843;28;20037;-75
2022/12/06 08:31:46;;;;;;;9.13;5.75;;;;;;;;;;5047469;28;20387;-76
2022/12/06 08:34:13;;;;;;;10.95;9.38;;;;;;;;;;5034768;28;20050;-75
2022/12/06 08:36:41;;;;;;;9.70;6.10;;;;;;;;;;5041139;28;20391;-75
2022/12/06 08:39:10;;;;;;;10.15;7.78;;;;;;;;;;5043300;28;20037;-75
2022/12/06 08:41:54;;;;;;;9.55;6.80;;;;;;;;;;5045991;28;20029;-75
2022/12/06 08:44:20;;;;;;;9.18;6.22;;;;;;;;;;5034312;28;20029;-75
2022/12/06 08:46:48;;;;;;;10.30;6.82;;;;;;;;;;5040365;28;20419;-75
2022/12/06 08:49:15;;;;;;;8.93;6.88;;;;;;;;;;5032241;28;20048;-76
2022/12/06 08:51:41;;;;;;;10.35;6.95;;;;;;;;;;5037738;28;20025;-76
2022/12/06 08:54:11;;;;;;;8.38;5.97;;;;;;;;;;5037980;28;20422;-76
2022/12/06 08:56:37;;;;;;;7.75;5.40;;;;;;;;;;5037981;28;20037;-75
2022/12/06 08:59:06;;;;;;;8.23;6.72;;;;;;;;;;5024054;28;20045;-75
2022/12/06 09:01:32;;;;;;;7.95;6.28;;;;;;;;;;5032084;28;20061;-75
2022/12/06 09:04:03;;;;;;;7.35;5.93;;;;;;;;;;5030892;28;20033;-75
2022/12/06 09:06:29;;;;;;;8.63;5.45;;;;;;;;;;5030351;28;20479;-76
2022/12/06 09:09:00;;;;;;;9.20;8.20;;;;;;;;;;5030622;28;20033;-75
2022/12/06 09:11:30;;;;;;;7.25;4.90;;;;;;;;;;5037817;28;20025;-75
2022/12/06 09:13:56;;;;;;;8.55;6.85;;;;;;;;;;5041641;28;20025;-75
2022/12/06 09:16:25;;;;;;;6.70;6.13;;;;;;;;;;5035989;28;20029;-75
2022/12/06 09:18:53;;;;;;;7.78;6.28;;;;;;;;;;5014627;28;20033;-75
2022/12/06 09:21:23;;;;;;;9.48;6.70;;;;;;;;;;5044253;28;20029;-76
2022/12/06 09:23:51;;;;;;;5.18;4.68;;;;;;;;;;5040153;28;20036;-75
2022/12/06 09:26:17;;;;;;;6.85;4.65;;;;;;;;;;5038330;28;20037;-76
2022/12/06 09:28:45;;;;;;;6.95;5.05;;;;;;;;;;5044066;28;20129;-75
2022/12/06 09:31:11;;;;;;;5.57;4.88;;;;;;;;;;5042997;28;20041;-75
2022/12/06 09:33:37;;;;;;;7.80;6.85;;;;;;;;;;5032031;28;20037;-75
2022/12/06 09:36:08;;;;;;;7.47;5.93;;;;;;;;;;5043392;28;20037;-75
2022/12/06 09:38:39;;;;;;;6.88;5.70;;;;;;;;;;5031691;28;20044;-76
2022/12/06 09:41:16;;;;;;;12.15;6.07;;;;;;;;;;5012409;28;20030;-76
2022/12/06 09:43:53;;;;;;;5.95;5.25;;;;;;;;;;5042345;28;20037;-75
2022/12/06 09:46:24;;;;;;;7.05;5.68;;;;;;;;;;5035156;28;20120;-75
2022/12/06 09:49:00;;;;;;;7.55;5.75;;;;;;;;;;5037144;28;20029;-76
2022/12/06 09:51:36;;;;;;;7.57;6.85;;;;;;;;;;5030251;28;20053;-75
2022/12/06 09:54:04;;;;;;;7.25;6.55;;;;;;;;;;5031580;28;20034;-75
2022/12/06 09:56:41;;;;;;;8.52;6.30;;;;;;;;;;5027958;28;20037;-76
2022/12/06 09:59:15;;;;;;;7.40;6.53;;;;;;;;;;5044303;28;20033;-75
2022/12/06 10:01:53;;;;;;;7.93;6.65;;;;;;;;;;5038651;28;20045;-75
2022/12/06 10:04:34;;;;;;;10.82;6.97;;;;;;;;;;5042028;28;20044;-75
2022/12/06 10:07:03;;;;;;;12.18;8.50;;;;;;;;;;5030051;28;20400;-75
2022/12/06 10:09:32;;;;;;;12.70;8.23;;;;;;;;;;5039862;28;20033;-75
2022/12/06 10:11:58;;;;;;;11.90;8.20;;;;;;;;;;5043649;28;20037;-76
2022/12/06 10:14:25;;;;;;;7.53;5.40;;;;;;;;;;5041774;28;20036;-75
2022/12/06 10:16:53;;;;;;;7.95;5.90;;;;;;;;;;5047079;28;20044;-75
2022/12/06 10:19:32;;;;;;;7.53;5.88;;;;;;;;;;5033974;28;20506;-75
2022/12/06 10:22:01;;;;;;;7.95;6.35;;;;;;;;;;5035182;28;20045;-75
2022/12/06 10:24:29;;;;;;;12.57;7.50;;;;;;;;;;5035993;28;20087;-76
2022/12/06 10:26:59;;;;;;;7.88;5.80;;;;;;;;;;5042430;28;20045;-75
2022/12/06 10:29:53;;;;;;;10.57;7.65;;;;;;;;;;5038165;28;20033;-75
2022/12/06 10:32:19;;;;;;;8.73;7.03;;;;;;;;;;5028987;28;20040;-75
2022/12/06 10:34:55;;;;;;;7.78;6.47;;;;;;;;;;5039732;28;20034;-75
2022/12/06 10:37:42;;;;;;;7.43;6.68;;;;;;;;;;5043918;28;20037;-75
2022/12/06 10:40:15;;;;;;;8.30;6.32;;;;;;;;;;5038498;28;20060;-75
2022/12/06 10:42:59;;;;;;;8.00;5.80;;;;;;;;;;5041702;28;20029;-75
2022/12/06 10:48:52;;;;;;;9.20;5.78;;;;;;;;;;5030185;28;20391;-76
2022/12/06 10:51:21;;;;;;;8.93;5.88;;;;;;;;;;5007150;28;20052;-75
2022/12/06 10:53:51;;;;;;;5.93;4.90;;;;;;;;;;5039348;28;20034;-76
2022/12/06 10:56:19;;;;;;;5.85;4.93;;;;;;;;;;5037753;28;20040;-76
2022/12/06 10:58:57;;;;;;;5.30;4.75;;;;;;;;;;5029422;28;20037;-76
2022/12/06 11:01:32;;;;;;;7.63;6.82;;;;;;;;;;5043050;28;20029;-75
2022/12/06 11:04:08;;;;;;;6.78;6.05;;;;;;;;;;5038600;28;20591;-76
2022/12/06 11:06:34;;;;;;;6.78;5.30;;;;;;;;;;5038384;28;20471;-76
2022/12/06 11:09:11;;;;;;;6.65;5.20;;;;;;;;;;5038431;28;20036;-76
2022/12/06 11:11:40;;;;;;;7.38;5.25;;;;;;;;;;5031313;28;20026;-75
2022/12/06 11:14:14;;;;;;;7.28;6.47;;;;;;;;;;5065657;28;20029;-75
2022/12/06 11:16:45;;;;;;;6.13;4.63;;;;;;;;;;5046441;28;20052;-75
2022/12/06 11:19:17;;;;;;;9.60;6.40;;;;;;;;;;5032249;28;20041;-76
2022/12/06 11:21:52;;;;;;;6.60;5.68;;;;;;;;;;5031405;28;20411;-76
2022/12/06 11:24:22;;;;;;;7.32;5.63;;;;;;;;;;5034139;28;20041;-76
2022/12/06 11:26:50;;;;;;;8.45;6.63;;;;;;;;;;5033872;28;20042;-76
2022/12/06 11:29:17;;;;;;;7.75;5.88;;;;;;;;;;5030642;28;20216;-75
2022/12/06 11:31:45;;;;;;;8.13;6.07;;;;;;;;;;5044665;28;20048;-76
2022/12/06 11:34:30;;;;;;;7.85;5.65;;;;;;;;;;5040285;28;20060;-75
2022/12/06 11:37:01;;;;;;;8.55;6.22;;;;;;;;;;5033423;28;20033;-76
2022/12/06 11:39:30;;;;;;;6.55;5.93;;;;;;;;;;5036967;28;20469;-75
2022/12/06 11:41:57;;;;;;;7.10;6.40;;;;;;;;;;5039829;28;20032;-76
2022/12/06 11:44:37;;;;;;;6.82;5.53;;;;;;;;;;5044017;28;20518;-76
2022/12/06 11:47:04;;;;;;;6.28;5.65;;;;;;;;;;5032427;28;20041;-76
2022/12/06 11:49:31;;;;;;;10.00;7.00;;;;;;;;;;5032433;28;20037;-76
2022/12/06 11:51:58;;;;;;;8.38;6.43;;;;;;;;;;5043301;28;20510;-76
2022/12/06 11:54:32;;;;;;;8.13;5.65;;;;;;;;;;5032173;28;20040;-76
2022/12/06 11:57:00;;;;;;;4.68;4.07;;;;;;;;;;4995186;28;20476;-75
2022/12/06 11:59:29;;;;;;;6.22;4.75;;;;;;;;;;5042071;28;20044;-76
2022/12/06 12:01:56;;;;;;;5.40;4.90;;;;;;;;;;5035968;28;20029;-76
2022/12/06 12:04:22;;;;;;;5.53;5.03;;;;;;;;;;5042007;28;20033;-76
2022/12/06 12:06:51;;;;;;;10.77;4.60;;;;;;;;;;5032053;28;20405;-76
2022/12/06 12:09:18;;;;;;;4.85;4.32;;;;;;;;;;5040887;28;20048;-76
2022/12/06 12:11:52;;;;;;;3.95;3.50;;;;;;;;;;5033119;28;20033;-76
2022/12/06 12:14:25;;;;;;;4.15;3.53;;;;;;;;;;5044411;28;20029;-75
2022/12/06 12:16:57;;;;;;;7.45;4.72;;;;;;;;;;5019148;28;20056;-76
2022/12/06 12:19:41;;;;;;;5.22;4.18;;;;;;;;;;5034431;28;20033;-76
2022/12/06 12:22:19;;;;;;;4.45;3.45;;;;;;;;;;5043755;28;20376;-76
2022/12/06 12:24:56;;;;;;;6.13;5.13;;;;;;;;;;5045775;28;20502;-76
2022/12/06 12:27:44;;;;;;;5.03;4.40;;;;;;;;;;5040968;28;20036;-76
2022/12/06 12:30:25;;;;;;;3.95;3.38;;;;;;;;;;5028756;28;20036;-76
2022/12/06 12:33:11;;;;;;;4.15;3.75;;;;;;;;;;5036065;28;20021;-76
2022/12/06 12:35:37;;;;;;;4.68;4.28;;;;;;;;;;5027144;28;20060;-76
2022/12/06 12:38:04;;;;;;;7.25;4.47;;;;;;;;;;5032679;28;20029;-76
2022/12/06 12:40:34;;;;;;;3.88;3.47;;;;;;;;;;5030736;28;20052;-76
2022/12/06 12:43:04;;;;;;;4.13;3.15;;;;;;;;;;5044445;28;20364;-76
2022/12/06 12:45:30;;;;;;;7.53;4.03;;;;;;;;;;5035344;28;20036;-76
2022/12/06 12:48:05;;;;;;;4.78;3.90;;;;;;;;;;5039383;28;20467;-76
2022/12/06 12:50:31;;;;;;;7.85;3.55;;;;;;;;;;5030946;28;20033;-76
2022/12/06 12:52:59;;;;;;;4.78;4.18;;;;;;;;;;5033012;28;20034;-76
2022/12/06 12:55:29;;;;;;;4.65;3.63;;;;;;;;;;5037746;28;20056;-76
2022/12/06 12:57:56;;;;;;;4.45;3.95;;;;;;;;;;5017517;28;20030;-76
2022/12/06 13:00:27;;;;;;;4.55;4.15;;;;;;;;;;5014256;28;20309;-76
2022/12/06 13:02:57;;;;;;;4.50;4.07;;;;;;;;;;5052753;22;20053;-72
2022/12/06 13:05:26;;;;;;;5.25;4.47;;;;;;;;;;5034356;28;20022;-72
2022/12/06 13:07:58;;;;;;;5.32;4.20;;;;;;;;;;5016164;28;20446;-73
2022/12/06 13:10:35;;;;;;;7.03;4.65;;;;;;;;;;5022339;28;20036;-73
2022/12/06 13:13:03;;;;;;;4.97;4.55;;;;;;;;;;5045954;28;20323;-72
2022/12/06 13:15:45;;;;;;;4.78;4.38;;;;;;;;;;5037677;28;20026;-72
2022/12/06 13:18:13;;;;;;;4.97;4.47;;;;;;;;;;5041493;28;20033;-73
2022/12/06 13:20:42;;;;;;;4.85;3.92;;;;;;;;;;5038434;28;20040;-74
2022/12/06 13:23:14;;;;;;;5.00;3.13;;;;;;;;;;5037306;28;20040;-73
2022/12/06 13:25:45;;;;;;;4.43;3.50;;;;;;;;;;5037494;28;20036;-73
2022/12/06 13:28:15;;;;;;;5.78;4.03;;;;;;;;;;5037769;28;20494;-75
2022/12/06 13:30:50;;;;;;;3.35;3.03;;;;;;;;;;5043345;28;20037;-72
2022/12/06 13:33:21;;;;;;;6.82;5.35;;;;;;;;;;5013019;28;20030;-72
2022/12/06 13:36:07;;;;;;;5.18;4.55;;;;;;;;;;5030443;28;20029;-73
2022/12/06 13:38:37;;;;;;;5.15;4.47;;;;;;;;;;5030657;28;20033;-72
2022/12/06 13:42:16;;;;;;;4.30;3.65;;;;;;;;;;5027850;28;20041;-73
2022/12/06 13:44:00;;;;;;;6.03;4.55;;;;;;;;;;5035001;28;20041;-72
2022/12/06 13:46:27;;;;;;;5.63;4.65;;;;;;;;;;5043973;28;20064;-73
2022/12/06 13:48:55;;;;;;;8.07;3.38;;;;;;;;;;5013986;28;20033;-73
2022/12/06 13:51:33;;;;;;;5.03;4.30;;;;;;;;;;5041779;28;20491;-73
2022/12/06 13:54:04;;;;;;;4.30;3.90;;;;;;;;;;5030532;28;20511;-73
2022/12/06 13:56:33;;;;;;;4.60;4.00;;;;;;;;;;5033590;28;20029;-73
2022/12/06 13:59:01;;;;;;;4.13;3.42;;;;;;;;;;5037104;28;20041;-73
2022/12/06 14:01:36;;;;;;;3.55;3.20;;;;;;;;;;5020728;28;20491;-73
2022/12/06 14:04:22;;;;;;;3.28;2.97;;;;;;;;;;5039170;28;20044;-73
2022/12/06 14:06:49;;;;;;;3.78;3.30;;;;;;;;;;5018490;28;20036;-73
2022/12/06 14:09:14;;;;;;;4.57;3.70;;;;;;;;;;5041183;28;21045;-73
2022/12/06 14:11:40;;;;;;;5.43;3.47;;;;;;;;;;5024016;28;20041;-73
2022/12/06 14:14:14;;;;;;;4.72;3.63;;;;;;;;;;5042829;28;20048;-72
2022/12/06 14:16:42;;;;;;;5.38;4.57;;;;;;;;;;5042771;28;20040;-73
2022/12/06 14:19:12;;;;;;;9.80;4.40;;;;;;;;;;5028841;28;20037;-74
2022/12/06 14:21:39;;;;;;;6.07;4.50;;;;;;;;;;5031128;28;20030;-74
2022/12/06 14:24:05;;;;;;;4.65;4.18;;;;;;;;;;5035600;28;20033;-73
2022/12/06 14:26:35;;;;;;;4.13;3.70;;;;;;;;;;5035857;28;20091;-73
2022/12/06 14:29:03;;;;;;;5.00;4.22;;;;;;;;;;5029874;28;20044;-73
2022/12/06 14:31:31;;;;;;;5.60;4.50;;;;;;;;;;5042914;28;20037;-72
2022/12/06 14:33:57;;;;;;;4.78;4.28;;;;;;;;;;5031224;28;20369;-73
2022/12/06 14:36:26;;;;;;;5.60;3.92;;;;;;;;;;5042316;28;20068;-73
2022/12/06 14:39:05;;;;;;;3.92;3.50;;;;;;;;;;5031038;28;20316;-73
2022/12/06 14:44:28;;;;;;;4.88;4.32;;;;;;;;;;5030537;28;20300;-73
2022/12/06 14:46:55;;;;;;;4.40;3.42;;;;;;;;;;5042185;28;20029;-73
2022/12/06 14:52:27;;;;;;;5.47;4.32;;;;;;;;;;5042250;28;20056;-73
2022/12/06 14:55:11;;;;;;;6.32;5.43;;;;;;;;;;5031075;28;20034;-73
2022/12/06 14:57:43;;;;;;;5.10;4.63;;;;;;;;;;5013145;28;20025;-74
2022/12/06 15:00:14;;;;;;;4.53;4.10;;;;;;;;;;5029431;28;20044;-72
2022/12/06 15:02:56;;;;;;;4.20;3.47;;;;;;;;;;5040571;28;20037;-73
2022/12/06 15:05:42;;;;;;;3.47;3.03;;;;;;;;;;5021370;28;20033;-73
2022/12/06 15:08:26;;;;;;;4.97;3.40;;;;;;;;;;5032091;28;20044;-72
2022/12/06 15:10:53;;;;;;;3.92;3.03;;;;;;;;;;5032842;28;20041;-73
2022/12/06 15:13:19;;;;;;;4.75;4.25;;;;;;;;;;5037451;28;20028;-74
2022/12/06 15:15:48;;;;;;;4.80;3.35;;;;;;;;;;5050822;28;20036;-73
2022/12/06 15:18:24;;;;;;;5.57;4.07;;;;;;;;;;5005236;28;20020;-72
2022/12/06 15:20:52;;;;;;;4.00;3.22;;;;;;;;;;5050678;28;20031;-72